createdAt,value
2018-09-04T00:01:40.838Z,27.6
2018-09-04T00:11:40.080Z,27.6
2018-09-04T00:21:39.320Z,27.6
2018-09-04T00:31:38.564Z,27.6
2018-09-04T00:41:37.803Z,27.6
2018-09-04T00:51:37.058Z,27.6
2018-09-04T01:01:36.292Z,27.6
2018-09-04T01:11:35.529Z,27.6
2018-09-04T01:21:34.772Z,27.6
2018-09-04T01:31:34.026Z,27.6
2018-09-04T01:41:33.260Z,27.6
2018-09-04T01:51:32.495Z,27.6
2018-09-04T02:01:31.741Z,27.6
2018-09-04T02:11:30.978Z,27.6
2018-09-04T02:21:30.223Z,27.6
2018-09-04T02:31:29.461Z,27.6
2018-09-04T02:41:28.708Z,27.6
2018-09-04T02:51:27.957Z,27.6
2018-09-04T03:01:27.191Z,27.6
2018-09-04T03:11:26.434Z,27.6
2018-09-04T03:21:25.676Z,27.6
2018-09-04T03:31:24.919Z,27.6
2018-09-04T03:41:24.159Z,27.6
2018-09-04T03:51:23.408Z,27.6
2018-09-04T04:01:22.692Z,27.5
2018-09-04T04:11:21.884Z,27.5
2018-09-04T04:21:21.127Z,27.5
2018-09-04T04:31:20.369Z,27.5
2018-09-04T04:41:19.614Z,27.5
2018-09-04T04:51:18.854Z,27.4
2018-09-04T05:01:18.106Z,27.4
2018-09-04T05:11:17.431Z,27.4
2018-09-04T05:21:16.583Z,27.4
2018-09-04T05:31:15.821Z,27.3
2018-09-04T05:41:15.068Z,27.3
2018-09-04T05:51:14.305Z,27.3
2018-09-04T06:01:13.544Z,27.3
2018-09-04T06:11:12.788Z,27.3
2018-09-04T06:21:12.026Z,27.3
2018-09-04T06:31:11.273Z,27.3
2018-09-04T06:41:10.507Z,27.3
2018-09-04T06:51:09.751Z,27.3
2018-09-04T07:01:08.992Z,27.3
2018-09-04T07:11:08.287Z,27.3
2018-09-04T07:21:07.484Z,27.3
2018-09-04T07:31:06.713Z,27.3
2018-09-04T07:41:05.967Z,27.3
2018-09-04T07:51:05.207Z,27.3
2018-09-04T08:01:04.457Z,27.4
2018-09-04T08:11:03.680Z,27.4
2018-09-04T08:21:02.920Z,27.4
2018-09-04T08:31:02.158Z,27.4
2018-09-04T08:41:01.402Z,27.4
2018-09-04T08:51:00.639Z,27.4
2018-09-04T09:00:59.884Z,27.4
2018-09-04T09:10:59.131Z,27.4
2018-09-04T09:20:58.372Z,27.4
2018-09-04T09:30:57.611Z,27.5
2018-09-04T09:40:56.849Z,27.5
2018-09-04T09:50:56.109Z,27.5
2018-09-04T10:00:55.359Z,27.5
2018-09-04T10:10:54.641Z,27.5
2018-09-04T10:20:53.826Z,27.5
2018-09-04T10:30:53.060Z,27.6
2018-09-04T10:40:52.308Z,27.6
2018-09-04T10:50:51.549Z,27.6
2018-09-04T11:00:50.799Z,27.6
2018-09-04T11:10:50.034Z,27.7
2018-09-04T11:20:49.286Z,27.7
2018-09-04T11:30:48.570Z,27.7
2018-09-04T11:40:47.870Z,27.8
2018-09-04T11:50:47.005Z,27.8
2018-09-04T12:00:46.249Z,27.7
2018-09-04T12:10:45.497Z,27.7
2018-09-04T12:20:44.842Z,27.8
2018-09-04T12:30:43.983Z,27.8
2018-09-04T12:40:43.225Z,27.8
2018-09-04T12:50:42.456Z,27.8
2018-09-04T13:00:41.698Z,27.8
2018-09-04T13:10:40.941Z,27.7
2018-09-04T13:20:40.182Z,27.7
2018-09-04T13:30:39.427Z,27.8
2018-09-04T13:40:38.672Z,27.8
2018-09-04T13:50:37.911Z,27.8
2018-09-04T14:00:37.152Z,27.8
2018-09-04T14:10:36.396Z,27.7
2018-09-04T14:20:35.639Z,27.7
2018-09-04T14:30:34.932Z,27.7
2018-09-04T14:40:34.123Z,27.7
2018-09-04T14:50:33.402Z,27.7
2018-09-04T15:00:32.606Z,27.7
2018-09-04T15:10:31.848Z,27.7
2018-09-04T15:20:31.087Z,27.7
2018-09-04T15:30:30.333Z,27.7
2018-09-04T15:40:29.575Z,27.7
2018-09-04T15:50:28.819Z,27.7
2018-09-04T16:00:28.069Z,27.7
2018-09-04T16:10:27.410Z,27.8
2018-09-04T16:20:26.553Z,27.8
2018-09-04T16:30:25.793Z,27.7
2018-09-04T16:40:25.039Z,27.7
2018-09-04T16:50:24.281Z,27.7
2018-09-04T17:00:23.525Z,27.7
2018-09-04T17:10:22.769Z,27.7
2018-09-04T17:20:22.022Z,27.6
2018-09-04T17:30:21.255Z,27.6
2018-09-04T17:40:20.501Z,27.4
2018-09-04T17:50:19.742Z,27.4
2018-09-04T18:00:18.981Z,27.3
2018-09-04T18:10:18.223Z,27.3
2018-09-04T18:20:17.465Z,27.2
2018-09-04T18:30:16.713Z,27.1
2018-09-04T18:40:15.957Z,26.9
2018-09-04T18:50:15.200Z,26.9
2018-09-04T19:00:14.443Z,26.9
2018-09-04T19:10:13.686Z,27
2018-09-04T19:20:12.990Z,27.1
2018-09-04T19:30:12.179Z,27.2
2018-09-04T19:40:11.416Z,27.3
2018-09-04T19:50:10.734Z,27.4
2018-09-04T20:00:09.906Z,27.4
2018-09-04T20:10:09.148Z,27.4
2018-09-04T20:20:08.391Z,27.4
2018-09-04T20:30:07.631Z,27.5
2018-09-04T20:40:06.874Z,27.5
2018-09-04T20:50:06.120Z,27.6
2018-09-04T21:00:05.463Z,27.6
2018-09-04T21:10:04.606Z,27.6
2018-09-04T21:20:03.841Z,27.6
2018-09-04T21:30:03.082Z,27.6
2018-09-04T21:40:02.332Z,27.6
2018-09-04T21:50:01.567Z,27.6
2018-09-04T22:00:00.807Z,27.6
2018-09-04T22:10:00.053Z,27.6
2018-09-04T22:19:59.289Z,27.6
2018-09-04T22:29:58.545Z,27.6
2018-09-04T22:39:57.770Z,27.6
2018-09-04T22:49:57.016Z,27.6
2018-09-04T22:59:56.252Z,27.6
2018-09-04T23:09:55.492Z,27.6
2018-09-04T23:19:54.738Z,27.6
2018-09-04T23:29:53.980Z,27.6
2018-09-04T23:39:53.249Z,27.6
2018-09-04T23:49:52.462Z,27.6
2018-09-04T23:59:51.697Z,27.6
